createdAt,value
2016-04-25T00:00:01.184Z,0
2016-04-25T00:01:01.187Z,0
2016-04-25T00:02:01.174Z,0
2016-04-25T00:03:01.145Z,0
2016-04-25T00:04:00.960Z,0
2016-04-25T00:05:01.105Z,0
2016-04-25T00:06:01.075Z,0
2016-04-25T00:07:01.077Z,0
2016-04-25T00:08:01.049Z,0
2016-04-25T00:09:01.036Z,0
2016-04-25T00:10:01.008Z,0
2016-04-25T00:11:00.996Z,0
2016-04-25T00:12:01.966Z,0
2016-04-25T00:13:01.390Z,0
2016-04-25T00:14:00.956Z,0
2016-04-25T00:15:00.943Z,0
2016-04-25T00:16:00.946Z,0
2016-04-25T00:17:00.902Z,0
2016-04-25T00:18:00.889Z,0
2016-04-25T00:19:00.875Z,0
2016-04-25T00:20:00.894Z,0
2016-04-25T00:21:00.835Z,0
2016-04-25T00:22:00.664Z,0
2016-04-25T00:23:00.798Z,0
2016-04-25T00:24:00.801Z,0
2016-04-25T00:25:00.788Z,0
2016-04-25T00:26:00.775Z,0
2016-04-25T00:27:00.309Z,0
2016-04-25T00:28:00.750Z,0
2016-04-25T00:29:00.720Z,0
2016-04-25T00:30:00.709Z,0
2016-04-25T00:31:00.679Z,0
2016-04-25T00:32:00.667Z,0
2016-04-25T00:33:00.639Z,0
2016-04-25T00:34:00.641Z,0
2016-04-25T00:35:00.597Z,0
2016-04-25T00:36:00.583Z,0
2016-04-25T00:37:00.571Z,0
2016-04-25T00:38:00.573Z,0
2016-04-25T00:39:00.545Z,0
2016-04-25T00:40:00.532Z,0
2016-04-25T00:41:00.535Z,0
2016-04-25T00:42:00.193Z,0
2016-04-25T00:43:00.337Z,0
2016-04-25T00:44:00.464Z,0
2016-04-25T00:45:00.467Z,0
2016-04-25T00:46:00.438Z,0
2016-04-25T00:47:00.411Z,0
2016-04-25T00:48:00.429Z,0
2016-04-25T00:49:00.400Z,0
2016-04-25T00:50:00.371Z,0
2016-04-25T00:51:00.374Z,0
2016-04-25T00:52:00.329Z,0
2016-04-25T00:53:00.333Z,0
2016-04-25T00:54:00.320Z,0
2016-04-25T00:55:00.291Z,0
2016-04-25T00:56:00.278Z,0
2016-04-25T00:57:01.125Z,0
2016-04-25T00:58:00.549Z,0
2016-04-25T00:59:00.209Z,0
2016-04-25T01:00:00.195Z,0
2016-04-25T01:01:00.181Z,0
2016-04-25T01:02:00.169Z,0
2016-04-25T01:03:00.157Z,0
2016-04-25T01:04:00.128Z,0
2016-04-25T01:05:00.115Z,0
2016-04-25T01:06:00.117Z,0
2016-04-25T01:07:00.120Z,0
2016-04-25T01:08:00.076Z,0
2016-04-25T01:09:00.079Z,0
2016-04-25T01:10:00.034Z,0
2016-04-25T01:11:00.021Z,0
2016-04-25T01:12:00.211Z,0
2016-04-25T01:13:00.152Z,0
2016-04-25T01:13:59.983Z,0
2016-04-25T01:14:59.954Z,0
2016-04-25T01:15:59.941Z,0
2016-04-25T01:16:59.913Z,0
2016-04-25T01:17:59.916Z,0
2016-04-25T01:18:59.902Z,0
2016-04-25T01:19:59.905Z,0
2016-04-25T01:20:59.860Z,0
2016-04-25T01:21:59.864Z,0
2016-04-25T01:22:59.835Z,0
2016-04-25T01:23:59.806Z,0
2016-04-25T01:24:59.778Z,0
2016-04-25T01:25:59.796Z,0
2016-04-25T01:26:59.752Z,0
2016-04-25T01:28:00.630Z,0
2016-04-25T01:28:59.742Z,0
2016-04-25T01:29:59.713Z,0
2016-04-25T01:30:59.685Z,0
2016-04-25T01:31:59.687Z,0
2016-04-25T01:32:59.675Z,0
2016-04-25T01:33:59.646Z,0
2016-04-25T01:34:59.633Z,0
2016-04-25T01:35:59.620Z,0
2016-04-25T01:36:59.592Z,0
2016-04-25T01:37:59.594Z,0
2016-04-25T01:38:59.441Z,0
2016-04-25T01:39:59.569Z,0
2016-04-25T01:40:59.540Z,0
2016-04-25T01:41:59.589Z,0
2016-04-25T01:42:59.513Z,0
2016-04-25T01:43:59.500Z,0
2016-04-25T01:44:59.472Z,0
2016-04-25T01:45:59.444Z,0
2016-04-25T01:46:59.447Z,0
2016-04-25T01:47:59.418Z,0
2016-04-25T01:48:59.402Z,0
2016-04-25T01:49:59.389Z,0
2016-04-25T01:50:59.361Z,0
2016-04-25T01:51:59.348Z,0
2016-04-25T01:52:59.335Z,0
2016-04-25T01:53:59.307Z,0
2016-04-25T01:54:59.310Z,0
2016-04-25T01:55:59.280Z,0
2016-04-25T01:56:59.268Z,0
2016-04-25T01:58:00.492Z,0
2016-04-25T01:58:59.242Z,0
2016-04-25T01:59:59.245Z,0
2016-04-25T02:00:59.215Z,0
2016-04-25T02:01:59.188Z,0
2016-04-25T02:02:59.174Z,0
2016-04-25T02:03:59.177Z,0
2016-04-25T02:04:59.133Z,0
2016-04-25T02:05:59.120Z,0
2016-04-25T02:06:59.107Z,0
2016-04-25T02:07:59.095Z,0
2016-04-25T02:08:59.081Z,0
2016-04-25T02:09:59.053Z,0
2016-04-25T02:10:59.039Z,0
2016-04-25T02:11:59.028Z,0
2016-04-25T02:12:58.123Z,0
2016-04-25T02:13:59.016Z,0
2016-04-25T02:14:58.972Z,0
2016-04-25T02:15:58.959Z,0
2016-04-25T02:16:58.978Z,0
2016-04-25T02:17:58.933Z,0
2016-04-25T02:18:58.905Z,0
2016-04-25T02:19:58.891Z,0
2016-04-25T02:20:58.879Z,0
2016-04-25T02:21:58.851Z,0
2016-04-25T02:22:58.682Z,0
2016-04-25T02:23:58.840Z,0
2016-04-25T02:24:58.827Z,0
2016-04-25T02:25:58.798Z,0
2016-04-25T02:26:58.786Z,0
2016-04-25T02:27:59.352Z,0
2016-04-25T02:28:58.728Z,0
2016-04-25T02:29:58.732Z,0
2016-04-25T02:30:58.718Z,0
2016-04-25T02:31:58.706Z,0
2016-04-25T02:32:58.693Z,0
2016-04-25T02:33:58.680Z,0
2016-04-25T02:34:58.652Z,0
2016-04-25T02:35:58.654Z,0
2016-04-25T02:36:58.609Z,0
2016-04-25T02:37:58.628Z,0
2016-04-25T02:38:58.599Z,0
2016-04-25T02:39:58.570Z,0
2016-04-25T02:40:58.402Z,0
2016-04-25T02:41:58.529Z,0
2016-04-25T02:42:58.361Z,0
2016-04-25T02:43:58.488Z,0
2016-04-25T02:44:58.491Z,0
2016-04-25T02:45:58.447Z,0
2016-04-25T02:46:58.450Z,0
2016-04-25T02:47:58.420Z,0
2016-04-25T02:48:58.423Z,0
2016-04-25T02:49:58.426Z,0
2016-04-25T02:50:58.382Z,0
2016-04-25T02:51:58.385Z,0
2016-04-25T02:52:58.341Z,0
2016-04-25T02:53:58.327Z,0
2016-04-25T02:54:58.299Z,0
2016-04-25T02:55:58.301Z,0
2016-04-25T02:56:58.289Z,0
2016-04-25T02:57:58.151Z,0
2016-04-25T02:58:58.263Z,0
2016-04-25T02:59:58.219Z,0
2016-04-25T03:00:58.221Z,0
2016-04-25T03:01:58.193Z,0
2016-04-25T03:02:58.179Z,0
2016-04-25T03:03:58.168Z,0
2016-04-25T03:04:58.154Z,0
2016-04-25T03:05:58.140Z,0
2016-04-25T03:06:58.113Z,0
2016-04-25T03:07:58.099Z,0
2016-04-25T03:08:57.930Z,0
2016-04-25T03:09:58.058Z,0
2016-04-25T03:10:58.045Z,0
2016-04-25T03:11:58.032Z,0
2016-04-25T03:12:57.925Z,0
2016-04-25T03:13:58.006Z,0
2016-04-25T03:14:57.978Z,0
2016-04-25T03:15:57.980Z,0
2016-04-25T03:16:57.952Z,0
2016-04-25T03:17:57.923Z,0
2016-04-25T03:18:57.910Z,0
2016-04-25T03:19:57.898Z,0
2016-04-25T03:20:57.869Z,0
2016-04-25T03:21:57.855Z,0
2016-04-25T03:22:57.843Z,0
2016-04-25T03:23:57.846Z,0
2016-04-25T03:24:57.832Z,0
2016-04-25T03:25:57.788Z,0
2016-04-25T03:26:57.775Z,0
2016-04-25T03:27:58.560Z,0
2016-04-25T03:28:57.749Z,0
2016-04-25T03:29:57.737Z,0
2016-04-25T03:30:57.707Z,0
2016-04-25T03:31:57.695Z,0
2016-04-25T03:32:57.699Z,0
2016-04-25T03:33:57.653Z,0
2016-04-25T03:34:57.641Z,0
2016-04-25T03:35:57.628Z,0
2016-04-25T03:36:57.631Z,0
2016-04-25T03:37:57.602Z,0
2016-04-25T03:38:57.573Z,0
2016-04-25T03:39:57.560Z,0
2016-04-25T03:40:57.547Z,0
2016-04-25T03:41:57.534Z,0
2016-04-25T03:42:58.397Z,0
2016-04-25T03:43:57.181Z,0
2016-04-25T03:44:57.480Z,0
2016-04-25T03:45:57.467Z,0
2016-04-25T03:46:57.439Z,0
2016-04-25T03:47:57.426Z,0
2016-04-25T03:48:57.413Z,0
2016-04-25T03:49:57.400Z,0
2016-04-25T03:50:57.387Z,0
2016-04-25T03:51:57.374Z,0
2016-04-25T03:52:57.345Z,0
2016-04-25T03:53:57.333Z,0
2016-04-25T03:54:57.319Z,0
2016-04-25T03:55:57.291Z,0
2016-04-25T03:56:57.278Z,0
2016-04-25T03:57:57.844Z,0
2016-04-25T03:58:58.252Z,0
2016-04-25T03:59:57.207Z,0
2016-04-25T04:00:57.195Z,0
2016-04-25T04:01:57.183Z,0
2016-04-25T04:02:57.185Z,0
2016-04-25T04:03:57.171Z,0
2016-04-25T04:04:57.127Z,0
2016-04-25T04:05:57.115Z,0
2016-04-25T04:06:57.118Z,0
2016-04-25T04:07:57.089Z,0
2016-04-25T04:08:57.076Z,0
2016-04-25T04:09:57.063Z,0
2016-04-25T04:10:57.035Z,0
2016-04-25T04:11:57.021Z,0
2016-04-25T04:12:58.148Z,0
2016-04-25T04:13:57.230Z,0
2016-04-25T04:14:56.984Z,0
2016-04-25T04:15:56.954Z,0
2016-04-25T04:16:56.957Z,0
2016-04-25T04:17:56.928Z,0
2016-04-25T04:18:56.915Z,0
2016-04-25T04:19:56.887Z,0
2016-04-25T04:20:56.874Z,0
2016-04-25T04:21:56.706Z,0
2016-04-25T04:22:56.848Z,0
2016-04-25T04:23:56.804Z,0
2016-04-25T04:24:56.822Z,0
2016-04-25T04:25:56.794Z,0
2016-04-25T04:26:56.765Z,0
2016-04-25T04:27:56.659Z,0
2016-04-25T04:28:57.317Z,0
2016-04-25T04:29:56.711Z,0
2016-04-25T04:30:56.697Z,0
2016-04-25T04:31:56.700Z,0
2016-04-25T04:32:56.656Z,0
2016-04-25T04:33:56.628Z,0
2016-04-25T04:34:56.630Z,0
2016-04-25T04:35:56.602Z,0
2016-04-25T04:36:56.604Z,0
2016-04-25T04:37:56.576Z,0
2016-04-25T04:38:56.563Z,0
2016-04-25T04:39:56.550Z,0
2016-04-25T04:40:56.553Z,0
2016-04-25T04:41:56.524Z,0
2016-04-25T04:42:56.496Z,0
2016-04-25T04:43:56.623Z,0
2016-04-25T04:44:56.470Z,0
2016-04-25T04:45:56.456Z,0
2016-04-25T04:46:56.445Z,0
2016-04-25T04:47:56.415Z,0
2016-04-25T04:48:56.403Z,0
2016-04-25T04:49:56.373Z,0
2016-04-25T04:50:56.361Z,0
2016-04-25T04:51:56.333Z,0
2016-04-25T04:52:56.336Z,0
2016-04-25T04:53:56.306Z,0
2016-04-25T04:54:56.309Z,0
2016-04-25T04:55:56.296Z,0
2016-04-25T04:56:56.267Z,0
2016-04-25T04:57:56.708Z,0
2016-04-25T04:58:57.194Z,0
2016-04-25T04:59:56.213Z,0
2016-04-25T05:00:56.216Z,0
2016-04-25T05:01:56.188Z,0
2016-04-25T05:02:56.174Z,0
2016-04-25T05:03:56.146Z,0
2016-04-25T05:04:56.118Z,0
2016-04-25T05:05:56.105Z,0
2016-04-25T05:06:56.091Z,0
2016-04-25T05:07:56.079Z,0
2016-04-25T05:08:56.065Z,0
2016-04-25T05:09:56.037Z,0
2016-04-25T05:10:56.024Z,0
2016-04-25T05:11:56.027Z,0
2016-04-25T05:12:56.065Z,0
2016-04-25T05:13:57.596Z,0
2016-04-25T05:14:56.081Z,0
2016-04-25T05:15:56.111Z,0
2016-04-25T05:16:56.127Z,0
2016-04-25T05:17:56.151Z,0
2016-04-25T05:18:56.139Z,0
2016-04-25T05:19:56.141Z,0
2016-04-25T05:20:56.129Z,0
2016-04-25T05:21:56.131Z,0
2016-04-25T05:22:56.126Z,4
2016-04-25T05:23:56.104Z,4
2016-04-25T05:24:56.113Z,0
2016-04-25T05:25:56.089Z,4
2016-04-25T05:26:56.082Z,4
2016-04-25T05:27:55.915Z,4
2016-04-25T05:28:55.935Z,4
2016-04-25T05:29:56.049Z,8
2016-04-25T05:30:56.024Z,12
2016-04-25T05:31:56.012Z,12
2016-04-25T05:32:55.984Z,16
2016-04-25T05:33:55.956Z,16
2016-04-25T05:34:55.944Z,20
2016-04-25T05:35:55.932Z,24
2016-04-25T05:36:55.920Z,32
2016-04-25T05:37:55.908Z,36
2016-04-25T05:38:55.879Z,40
2016-04-25T05:39:55.867Z,52
2016-04-25T05:40:55.839Z,60
2016-04-25T05:41:55.842Z,72
2016-04-25T05:42:55.563Z,80
2016-04-25T05:43:55.801Z,92
2016-04-25T05:44:55.772Z,104
2016-04-25T05:45:55.774Z,120
2016-04-25T05:46:55.605Z,136
2016-04-25T05:47:55.733Z,148
2016-04-25T05:48:55.705Z,168
2016-04-25T05:49:55.692Z,184
2016-04-25T05:50:55.678Z,204
2016-04-25T05:51:55.696Z,224
2016-04-25T05:52:55.653Z,244
2016-04-25T05:53:55.608Z,268
2016-04-25T05:54:55.454Z,284
2016-04-25T05:55:55.599Z,308
2016-04-25T05:56:55.569Z,332
2016-04-25T05:57:56.088Z,356
2016-04-25T05:58:56.107Z,380
2016-04-25T05:59:55.530Z,400
2016-04-25T06:00:55.518Z,428
2016-04-25T06:01:55.520Z,452
2016-04-25T06:02:55.477Z,472
2016-04-25T06:03:55.463Z,496
2016-04-25T06:04:55.418Z,524
2016-04-25T06:05:55.422Z,544
2016-04-25T06:06:55.409Z,568
2016-04-25T06:07:55.381Z,596
2016-04-25T06:08:55.384Z,616
2016-04-25T06:09:55.354Z,640
2016-04-25T06:10:55.326Z,660
2016-04-25T06:11:55.312Z,684
2016-04-25T06:12:55.347Z,704
2016-04-25T06:13:55.225Z,724
2016-04-25T06:14:55.275Z,748
2016-04-25T06:15:55.292Z,768
2016-04-25T06:16:55.233Z,792
2016-04-25T06:17:55.236Z,808
2016-04-25T06:18:55.206Z,828
2016-04-25T06:19:55.163Z,848
2016-04-25T06:20:55.150Z,868
2016-04-25T06:21:55.183Z,888
2016-04-25T06:22:55.125Z,908
2016-04-25T06:23:55.112Z,924
2016-04-25T06:24:55.098Z,940
2016-04-25T06:25:55.070Z,956
2016-04-25T06:26:55.058Z,976
2016-04-25T06:27:56.514Z,992
2016-04-25T06:28:55.172Z,1004
2016-04-25T06:29:54.237Z,1020
2016-04-25T06:30:54.990Z,1036
2016-04-25T06:31:54.977Z,1052
2016-04-25T06:32:54.964Z,1064
2016-04-25T06:33:54.936Z,1080
2016-04-25T06:34:54.922Z,1092
2016-04-25T06:35:54.911Z,1108
2016-04-25T06:36:54.881Z,1120
2016-04-25T06:37:54.868Z,1136
2016-04-25T06:38:54.856Z,1152
2016-04-25T06:39:54.842Z,1164
2016-04-25T06:40:54.814Z,1176
2016-04-25T06:41:54.785Z,1184
2016-04-25T06:42:54.772Z,1200
2016-04-25T06:43:54.665Z,1212
2016-04-25T06:44:55.247Z,1224
2016-04-25T06:45:54.765Z,1232
2016-04-25T06:46:54.721Z,1244
2016-04-25T06:47:54.707Z,1256
2016-04-25T06:48:54.680Z,1268
2016-04-25T06:49:54.665Z,1280
2016-04-25T06:50:54.638Z,1288
2016-04-25T06:51:54.625Z,1300
2016-04-25T06:52:54.612Z,1308
2016-04-25T06:53:54.598Z,1324
2016-04-25T06:54:54.571Z,1336
2016-04-25T06:55:54.573Z,1348
2016-04-25T06:56:54.545Z,1360
2016-04-25T06:57:54.547Z,1372
2016-04-25T06:58:55.315Z,1380
2016-04-25T06:59:55.709Z,1396
2016-04-25T07:00:54.493Z,1408
2016-04-25T07:01:54.464Z,1416
2016-04-25T07:02:54.450Z,1432
2016-04-25T07:03:54.422Z,1444
2016-04-25T07:04:54.410Z,1452
2016-04-25T07:05:54.397Z,1468
2016-04-25T07:06:54.369Z,1480
2016-04-25T07:07:54.386Z,1492
2016-04-25T07:08:54.358Z,1504
2016-04-25T07:09:54.330Z,1516
2016-04-25T07:10:54.316Z,1528
2016-04-25T07:11:54.288Z,1540
2016-04-25T07:12:54.275Z,1552
2016-04-25T07:13:54.168Z,1564
2016-04-25T07:14:54.233Z,1580
2016-04-25T07:15:54.252Z,1592
2016-04-25T07:16:54.223Z,1604
2016-04-25T07:17:54.210Z,1616
2016-04-25T07:18:54.182Z,1632
2016-04-25T07:19:54.154Z,1644
2016-04-25T07:20:53.999Z,1656
2016-04-25T07:21:54.143Z,1668
2016-04-25T07:22:54.114Z,1680
2016-04-25T07:23:53.929Z,1692
2016-04-25T07:24:54.073Z,1700
2016-04-25T07:25:54.045Z,1716
2016-04-25T07:26:54.047Z,1728
2016-04-25T07:27:54.018Z,1740
2016-04-25T07:28:54.475Z,1752
2016-04-25T07:29:53.992Z,1764
2016-04-25T07:30:53.980Z,1776
2016-04-25T07:31:53.967Z,1784
2016-04-25T07:32:53.954Z,1792
2016-04-25T07:33:53.909Z,1804
2016-04-25T07:34:53.897Z,1816
2016-04-25T07:35:53.900Z,1820
2016-04-25T07:36:53.871Z,1832
2016-04-25T07:37:53.858Z,1844
2016-04-25T07:38:53.844Z,1852
2016-04-25T07:39:53.848Z,1860
2016-04-25T07:40:53.803Z,1872
2016-04-25T07:41:53.791Z,1880
2016-04-25T07:42:53.762Z,1892
2016-04-25T07:43:54.280Z,1904
2016-04-25T07:44:53.767Z,1912
2016-04-25T07:45:53.724Z,1924
2016-04-25T07:46:53.710Z,1936
2016-04-25T07:47:53.697Z,1948
2016-04-25T07:48:53.684Z,1960
2016-04-25T07:49:53.515Z,1968
2016-04-25T07:50:53.643Z,1980
2016-04-25T07:51:53.629Z,1996
2016-04-25T07:52:53.602Z,2008
2016-04-25T07:53:53.604Z,2020
2016-04-25T07:54:53.576Z,2032
2016-04-25T07:55:53.563Z,2044
2016-04-25T07:56:53.550Z,2064
2016-04-25T07:57:53.520Z,2072
2016-04-25T07:58:53.384Z,2088
2016-04-25T07:59:53.511Z,2100
2016-04-25T08:00:53.498Z,2112
2016-04-25T08:01:53.485Z,2128
2016-04-25T08:02:53.441Z,2136
2016-04-25T08:03:53.444Z,2148
2016-04-25T08:04:53.415Z,2164
2016-04-25T08:05:53.402Z,2176
2016-04-25T08:06:53.389Z,2188
2016-04-25T08:07:53.376Z,2200
2016-04-25T08:08:53.363Z,2208
2016-04-25T08:09:53.335Z,2220
2016-04-25T08:10:53.322Z,2228
2016-04-25T08:11:53.309Z,2240
2016-04-25T08:12:53.305Z,2244
2016-04-25T08:13:54.604Z,2264
2016-04-25T08:14:52.982Z,2272
2016-04-25T08:15:53.234Z,2284
2016-04-25T08:16:53.221Z,2292
2016-04-25T08:17:53.209Z,2304
2016-04-25T08:18:53.196Z,2312
2016-04-25T08:19:53.183Z,2320
2016-04-25T08:20:53.169Z,2336
2016-04-25T08:21:53.016Z,2336
2016-04-25T08:22:53.129Z,2348
2016-04-25T08:23:53.117Z,2364
2016-04-25T08:24:53.119Z,2376
2016-04-25T08:25:53.075Z,2392
2016-04-25T08:26:53.062Z,2404
2016-04-25T08:27:53.033Z,2424
2016-04-25T08:28:53.848Z,2432
2016-04-25T08:29:53.164Z,2444
2016-04-25T08:30:52.995Z,2448
2016-04-25T08:31:52.997Z,2468
2016-04-25T08:32:52.969Z,2476
2016-04-25T08:33:52.940Z,2488
2016-04-25T08:34:52.944Z,2536
2016-04-25T08:35:52.930Z,2516
2016-04-25T08:36:52.917Z,2536
2016-04-25T08:37:52.888Z,2552
2016-04-25T08:38:52.875Z,2560
2016-04-25T08:39:52.863Z,2572
2016-04-25T08:40:52.854Z,2592
2016-04-25T08:41:52.826Z,2600
2016-04-25T08:42:52.813Z,2620
2016-04-25T08:43:52.956Z,2636
2016-04-25T08:44:52.788Z,2644
2016-04-25T08:45:52.806Z,2660
2016-04-25T08:46:52.777Z,2676
2016-04-25T08:47:52.732Z,2700
2016-04-25T08:48:52.720Z,2720
2016-04-25T08:49:52.707Z,2736
2016-04-25T08:50:52.694Z,2756
2016-04-25T08:51:52.681Z,2772
2016-04-25T08:52:52.668Z,2792
2016-04-25T08:53:52.639Z,2808
2016-04-25T08:54:52.642Z,2828
2016-04-25T08:55:52.614Z,2848
2016-04-25T08:56:52.585Z,2868
2016-04-25T08:57:52.603Z,2900
2016-04-25T08:58:53.262Z,2912
2016-04-25T08:59:52.578Z,2940
2016-04-25T09:00:52.611Z,2940
2016-04-25T09:01:52.583Z,2964
2016-04-25T09:02:52.538Z,2988
2016-04-25T09:03:52.510Z,3008
2016-04-25T09:04:52.497Z,3016
2016-04-25T09:05:52.485Z,3040
2016-04-25T09:06:52.455Z,3068
2016-04-25T09:07:52.458Z,3084
2016-04-25T09:08:52.430Z,3100
2016-04-25T09:09:52.402Z,3120
2016-04-25T09:10:52.373Z,3132
2016-04-25T09:11:52.376Z,3148
2016-04-25T09:12:52.362Z,3164
2016-04-25T09:13:53.006Z,3188
2016-04-25T09:14:52.337Z,3216
2016-04-25T09:15:52.307Z,3236
2016-04-25T09:16:52.299Z,3252
2016-04-25T09:17:52.286Z,3256
2016-04-25T09:18:52.258Z,3280
2016-04-25T09:19:52.260Z,3308
2016-04-25T09:20:52.232Z,3328
2016-04-25T09:21:52.110Z,3352
2016-04-25T09:22:52.206Z,3376
2016-04-25T09:23:52.224Z,3404
2016-04-25T09:24:52.180Z,3436
2016-04-25T09:25:52.182Z,3460
2016-04-25T09:26:52.185Z,3488
2016-04-25T09:27:52.173Z,3512
2016-04-25T09:28:52.129Z,3536
2016-04-25T09:29:52.724Z,3564
2016-04-25T09:30:52.087Z,3588
2016-04-25T09:31:52.089Z,3608
2016-04-25T09:32:52.093Z,3632
2016-04-25T09:33:52.064Z,3664
2016-04-25T09:34:52.034Z,3688
2016-04-25T09:35:52.069Z,3724
2016-04-25T09:36:52.009Z,3756
2016-04-25T09:37:51.981Z,3780
2016-04-25T09:38:51.967Z,3812
2016-04-25T09:39:51.986Z,3848
2016-04-25T09:40:51.973Z,3888
2016-04-25T09:41:51.944Z,3924
2016-04-25T09:42:51.916Z,3972
2016-04-25T09:43:51.919Z,4012
2016-04-25T09:44:51.764Z,4064
2016-04-25T09:45:51.877Z,4128
2016-04-25T09:46:51.864Z,4188
2016-04-25T09:47:51.836Z,4244
2016-04-25T09:48:51.854Z,4300
2016-04-25T09:49:51.825Z,4380
2016-04-25T09:50:51.797Z,4416
2016-04-25T09:51:51.799Z,4480
2016-04-25T09:52:51.771Z,4540
2016-04-25T09:53:51.773Z,4596
2016-04-25T09:54:51.745Z,4664
2016-04-25T09:55:51.404Z,4724
2016-04-25T09:56:51.719Z,4808
2016-04-25T09:57:51.674Z,4876
2016-04-25T09:58:51.568Z,4948
2016-04-25T09:59:51.555Z,5048
2016-04-25T10:00:51.652Z,5148
2016-04-25T10:01:51.654Z,5248
2016-04-25T10:02:51.626Z,5344
2016-04-25T10:03:51.628Z,5452
2016-04-25T10:04:51.600Z,5556
2016-04-25T10:05:51.603Z,5676
2016-04-25T10:06:51.590Z,5796
2016-04-25T10:07:51.592Z,5908
2016-04-25T10:08:51.548Z,6012
2016-04-25T10:09:51.567Z,6152
2016-04-25T10:10:51.554Z,6280
2016-04-25T10:11:51.509Z,6420
2016-04-25T10:12:51.511Z,6548
2016-04-25T10:13:52.234Z,6704
2016-04-25T10:14:52.581Z,6852
2016-04-25T10:15:51.473Z,7024
2016-04-25T10:17:05.508Z,7188
2016-04-25T10:17:51.447Z,7320
2016-04-25T10:18:51.419Z,7424
2016-04-25T10:19:51.406Z,7572
2016-04-25T10:20:51.394Z,7672
2016-04-25T10:21:51.380Z,7736
2016-04-25T10:22:51.351Z,7800
2016-04-25T10:23:51.354Z,7836
2016-04-25T10:24:51.388Z,7884
2016-04-25T10:25:51.344Z,7940
2016-04-25T10:26:51.300Z,7972
2016-04-25T10:27:51.287Z,8012
2016-04-25T10:28:51.290Z,8012
2016-04-25T10:29:51.855Z,8060
2016-04-25T10:30:51.280Z,8072
2016-04-25T10:31:51.257Z,8088
2016-04-25T10:32:51.134Z,8080
2016-04-25T10:33:51.074Z,8092
2016-04-25T10:34:51.644Z,8100
2016-04-25T10:35:51.215Z,8084
2016-04-25T10:36:51.373Z,8052
2016-04-25T10:37:51.157Z,8076
2016-04-25T10:38:51.160Z,8048
2016-04-25T10:39:51.163Z,8044
2016-04-25T10:40:51.135Z,8012
2016-04-25T10:41:51.122Z,8012
2016-04-25T10:42:51.092Z,8020
2016-04-25T10:43:51.595Z,7984
2016-04-25T10:44:52.223Z,7988
2016-04-25T10:45:51.086Z,7984
2016-04-25T10:46:51.072Z,7936
2016-04-25T10:47:51.028Z,7920
2016-04-25T10:48:51.031Z,7876
2016-04-25T10:49:51.034Z,7856
2016-04-25T10:50:50.989Z,7848
2016-04-25T10:51:50.992Z,7828
2016-04-25T10:52:50.979Z,7800
2016-04-25T10:53:50.966Z,7780
2016-04-25T10:54:50.968Z,7756
2016-04-25T10:55:50.972Z,7744
2016-04-25T10:56:50.958Z,7760
2016-04-25T10:57:50.915Z,7776
2016-04-25T10:58:50.995Z,7824
2016-04-25T10:59:51.874Z,7880
2016-04-25T11:00:50.891Z,7944
2016-04-25T11:01:50.863Z,8140
2016-04-25T11:02:50.865Z,8628
2016-04-25T11:03:50.868Z,17312
2016-04-25T11:04:50.855Z,29824
2016-04-25T11:05:50.842Z,33344
2016-04-25T11:06:50.829Z,35648
2016-04-25T11:07:50.848Z,38176
2016-04-25T11:08:50.820Z,43104
2016-04-25T11:09:50.822Z,46560
2016-04-25T11:10:50.809Z,44992
2016-04-25T11:11:50.812Z,49440
2016-04-25T11:12:50.814Z,56096
2016-04-25T11:13:52.191Z,57632
2016-04-25T11:14:50.554Z,67712
2016-04-25T11:15:50.869Z,76928
2016-04-25T11:16:50.809Z,76800
2016-04-25T11:17:50.797Z,80800
2016-04-25T11:18:50.800Z,82976
2016-04-25T11:19:50.786Z,81984
2016-04-25T11:20:50.789Z,88224
2016-04-25T11:21:50.792Z,91264
2016-04-25T11:22:50.810Z,91840
2016-04-25T11:23:50.797Z,92608
2016-04-25T11:24:50.783Z,91712
2016-04-25T11:25:50.849Z,90240
2016-04-25T11:28:51.280Z,92480
2016-04-25T11:29:50.782Z,99840
2016-04-25T11:30:50.816Z,103296
2016-04-25T11:31:50.819Z,101248
2016-04-25T11:32:50.805Z,105600
2016-04-25T11:33:50.824Z,108768
2016-04-25T11:34:50.810Z,106336
2016-04-25T11:35:50.845Z,106080
2016-04-25T11:36:50.832Z,108352
2016-04-25T11:37:50.834Z,104320
2016-04-25T11:38:50.853Z,105120
2016-04-25T11:39:50.856Z,108288
2016-04-25T11:40:50.842Z,113920
2016-04-25T11:41:50.861Z,106912
2016-04-25T11:42:50.864Z,104640
2016-04-25T11:43:51.147Z,107456
2016-04-25T11:44:51.275Z,108480
2016-04-25T11:45:50.872Z,107936
2016-04-25T11:46:50.718Z,108032
2016-04-25T11:47:50.882Z,108928
2016-04-25T11:48:50.889Z,110176
2016-04-25T11:49:50.924Z,110528
2016-04-25T11:50:50.895Z,107232
2016-04-25T11:51:50.913Z,106784
2016-04-25T11:52:50.921Z,108064
2016-04-25T11:53:50.923Z,110400
2016-04-25T11:54:50.910Z,110592
2016-04-25T11:55:50.945Z,103552
2016-04-25T11:56:50.963Z,103584
2016-04-25T11:57:50.951Z,108320
2016-04-25T11:58:51.796Z,106208
2016-04-25T11:59:50.831Z,108704
2016-04-25T12:00:50.973Z,108480
2016-04-25T12:01:50.976Z,110336
2016-04-25T12:02:50.979Z,112000
2016-04-25T12:03:50.982Z,109824
2016-04-25T12:04:50.984Z,107872
2016-04-25T12:05:50.987Z,107424
2016-04-25T12:06:51.020Z,110752
2016-04-25T12:07:51.008Z,111328
2016-04-25T12:08:51.011Z,111968
2016-04-25T12:09:51.014Z,113152
2016-04-25T12:10:51.016Z,108672
2016-04-25T12:11:51.034Z,107776
2016-04-25T12:12:51.037Z,115264
2016-04-25T12:13:52.555Z,117536
2016-04-25T12:14:52.324Z,143424
2016-04-25T12:15:51.076Z,136736
2016-04-25T12:16:51.094Z,115360
2016-04-25T12:17:51.066Z,107616
2016-04-25T12:18:51.069Z,101344
2016-04-25T12:19:51.088Z,104000
2016-04-25T12:20:51.105Z,113920
2016-04-25T12:21:51.108Z,116832
2016-04-25T12:22:51.096Z,111488
2016-04-25T12:23:51.098Z,109152
2016-04-25T12:24:51.148Z,114336
2016-04-25T12:25:51.151Z,114624
2016-04-25T12:26:51.153Z,112416
2016-04-25T12:27:51.140Z,110080
2016-04-25T12:28:51.284Z,114112
2016-04-25T12:29:51.505Z,114944
2016-04-25T12:30:51.179Z,113440
2016-04-25T12:31:51.198Z,113088
2016-04-25T12:32:51.045Z,113472
2016-04-25T12:33:51.187Z,112416
2016-04-25T12:34:51.206Z,108768
2016-04-25T12:35:51.192Z,112992
2016-04-25T12:36:51.211Z,111168
2016-04-25T12:37:51.229Z,105312
2016-04-25T12:38:51.091Z,104032
2016-04-25T12:39:51.234Z,108992
2016-04-25T12:40:51.253Z,112768
2016-04-25T12:41:51.162Z,113568
2016-04-25T12:42:51.258Z,110656
2016-04-25T12:43:51.480Z,108608
2016-04-25T12:44:51.436Z,110368
2016-04-25T12:45:51.297Z,113632
2016-04-25T12:46:51.301Z,110720
2016-04-25T12:47:51.319Z,112096
2016-04-25T12:48:51.305Z,112512
2016-04-25T12:49:51.341Z,111840
2016-04-25T12:50:51.311Z,114688
2016-04-25T12:51:51.345Z,113280
2016-04-25T12:52:51.348Z,108544
2016-04-25T12:53:51.366Z,109408
2016-04-25T12:54:51.399Z,109824
2016-04-25T12:55:51.403Z,108544
2016-04-25T12:56:51.379Z,111712
2016-04-25T12:57:51.429Z,111488
2016-04-25T12:58:51.401Z,108768
2016-04-25T12:59:51.496Z,107392
2016-04-25T13:00:51.421Z,111424
2016-04-25T13:01:51.424Z,110784
2016-04-25T13:02:51.426Z,108576
2016-04-25T13:03:51.445Z,108864
2016-04-25T13:04:51.448Z,109568
2016-04-25T13:05:51.450Z,110528
2016-04-25T13:06:51.453Z,110528
2016-04-25T13:07:51.331Z,110176
2016-04-25T13:08:51.521Z,110368
2016-04-25T13:09:51.477Z,114208
2016-04-25T13:10:51.511Z,112384
2016-04-25T13:11:51.733Z,108352
2016-04-25T13:12:51.500Z,111456
2016-04-25T13:13:51.502Z,110912
2016-04-25T13:14:52.334Z,109248
2016-04-25T13:15:51.525Z,111136
2016-04-25T13:16:51.542Z,109728
2016-04-25T13:17:50.771Z,105536
2016-04-25T13:18:51.554Z,106976
2016-04-25T13:19:51.542Z,106400
2016-04-25T13:20:51.576Z,109024
2016-04-25T13:21:51.531Z,108544
2016-04-25T13:22:51.565Z,102208
2016-04-25T13:23:51.584Z,99680
2016-04-25T13:24:51.617Z,102016
2016-04-25T13:25:51.589Z,102368
2016-04-25T13:26:51.608Z,106336
2016-04-25T13:27:51.610Z,103168
2016-04-25T13:28:51.628Z,95200
2016-04-25T13:29:51.631Z,95744
2016-04-25T13:30:51.650Z,103296
2016-04-25T13:31:51.652Z,107584
2016-04-25T13:32:51.686Z,107136
2016-04-25T13:33:51.798Z,111808
2016-04-25T13:34:51.864Z,113504
2016-04-25T13:35:51.678Z,109760
2016-04-25T13:36:51.696Z,110976
2016-04-25T13:37:51.700Z,108896
2016-04-25T13:38:51.702Z,98208
2016-04-25T13:39:51.564Z,99776
2016-04-25T13:40:51.724Z,103648
2016-04-25T13:41:51.726Z,98720
2016-04-25T13:42:51.760Z,98368
2016-04-25T13:43:51.825Z,99712
2016-04-25T13:44:52.891Z,101856
2016-04-25T13:45:51.737Z,100640